Latest Weather Observations for Young

IDN60801

Issued at 9:42 am EST Tuesday 26 May 2020 (issued every 10 minutes, with the page automatically refreshed every 10 minutes)

About weather observations | Map of weather stations | Latest weather observations for NSW | Other Formats
Station Details ID: 073138 Name: YOUNG AIRPORT Lat: -34.25 Lon: 148.25 Height: 379.6 m
Data from the previous 72 hours. | See also: Recent months at Young
Date/Time
EST
Temp
°C
App
Temp
°C
Dew
Point
°C
Rel
Hum
%
Delta-T
°C
Wind Press
QNH
hPa
Press
MSL
hPa
Rain since
9am
mm
Dir  Spd
km/h
Gust
km/h
Spd
kts
Gust
kts
26/09:30am 13.0 9.8 8.5 74 2.3 SE 15 22 8 12 1024.9 1025.1 0.0
26/09:00am 12.2 10.0 7.9 75 2.1 ESE 9 17 5 9 1024.6 1024.8 0.0
26/08:30am 10.3 7.9 6.8 79 1.7 S 9 13 5 7 1024.3 1024.5 0.0
26/08:00am 10.1 7.4 7.3 83 1.4 SE 11 20 6 11 1024.1 1024.3 0.0
26/07:30am 7.9 5.8 6.0 88 0.9 SW 6 9 3 5 1023.8 1024.0 0.0
26/07:00am 7.8 5.4 5.1 83 1.2 SSE 7 11 4 6 1023.5 1023.6 0.0
26/06:30am 8.5 5.8 5.8 83 1.3 SE 9 13 5 7 1023.1 1023.2 0.0
26/06:00am 8.4 5.8 6.0 85 1.1 SSE 9 13 5 7 1022.5 1022.7 0.0
26/05:30am 8.0 5.1 4.9 81 1.4 SSE 9 9 5 5 1022.5 1022.7 0.0
26/05:00am 8.4 4.8 4.8 78 1.6 SSE 13 19 7 10 1022.4 1022.6 0.0
26/04:30am 8.8 4.4 4.6 75 1.9 SSE 17 26 9 14 1022.6 1022.8 0.0
26/04:00am 9.0 4.9 4.6 74 2.0 SE 15 24 8 13 1022.6 1022.8 0.0
26/03:30am 9.0 4.9 4.6 74 2.0 SSE 15 22 8 12 1022.7 1022.9 0.0
26/03:00am 8.4 5.1 4.6 77 1.7 S 11 17 6 9 1022.9 1023.1 0.0
26/02:30am 8.1 4.9 4.9 80 1.4 SSW 11 15 6 8 1023.1 1023.2 0.0
26/02:00am 8.7 5.4 4.7 76 1.8 S 11 17 6 9 1023.3 1023.4 0.0
26/01:30am 8.7 5.1 5.1 78 1.6 S 13 19 7 10 1023.5 1023.6 0.0
26/01:00am 9.1 5.6 5.5 78 1.7 SSE 13 17 7 9 1023.3 1023.4 0.0
26/12:30am 9.6 5.8 5.8 77 1.8 SSE 15 17 8 9 1023.5 1023.6 0.0
26/12:00am 10.1 6.4 6.1 76 1.9 SSE 15 20 8 11 1023.6 1023.7 0.0
 
Date/Time
EST
Temp
°C
App
Temp
°C
Dew
Point
°C
Rel
Hum
%
Delta-T
°C
Wind Press
QNH
hPa
Press
MSL
hPa
Rain since
9am
mm
Dir  Spd
km/h
Gust
km/h
Spd
kts
Gust
kts
25/11:30pm 10.5 6.4 6.3 75 2.0 SE 17 26 9 14 1023.4 1023.5 0.0
25/11:00pm 10.5 6.9 6.8 78 1.8 SSE 15 22 8 12 1023.3 1023.4 0.0
25/10:30pm 10.5 7.2 6.6 77 1.9 SE 13 19 7 10 1023.2 1023.3 0.0
25/10:00pm 9.9 7.5 6.8 81 1.5 SSE 9 15 5 8 1023.2 1023.3 0.0
25/09:30pm 9.5 6.6 6.4 81 1.5 S 11 15 6 8 1023.2 1023.3 0.0
25/09:00pm 10.4 6.8 6.7 78 1.8 S 15 19 8 10 1023.1 1023.2 0.0
25/08:30pm 11.2 7.6 6.7 74 2.2 S 15 20 8 11 1022.9 1023.1 0.0
25/08:00pm 9.6 6.6 6.1 79 1.6 SSW 11 13 6 7 1022.6 1022.8 0.0
25/07:30pm 11.2 7.9 6.3 72 2.3 S 13 17 7 9 1022.1 1022.3 0.0
25/07:00pm 12.4 9.5 6.7 68 2.8 SSE 11 15 6 8 1022.0 1022.2 0.0
25/06:30pm 12.7 9.5 6.7 67 2.9 SSE 13 17 7 9 1021.7 1021.9 0.0
25/06:00pm 13.5 10.2 6.4 62 3.5 SE 13 19 7 10 1021.5 1021.7 0.0
25/05:30pm 13.7 10.1 6.6 62 3.5 SSE 15 19 8 10 1021.2 1021.3 0.0
25/05:00pm 14.0 10.0 6.6 61 3.6 SSE 17 26 9 14 1020.8 1020.9 0.0
25/04:30pm 14.2 10.7 7.0 62 3.6 SSE 15 20 8 11 1020.3 1020.4 0.0
25/04:00pm 14.5 11.0 7.3 62 3.6 SSE 15 20 8 11 1020.0 1020.2 0.0
25/03:30pm 14.5 10.5 6.8 60 3.8 S 17 26 9 14 1020.3 1020.4 0.0
25/03:00pm 14.6 10.5 6.4 58 4.0 S 17 20 9 11 1020.3 1020.4 0.0
25/02:30pm 14.4 9.8 6.3 58 4.0 S 20 24 11 13 1020.4 1020.5 0.0
25/02:00pm 15.0 10.9 6.0 55 4.4 S 17 26 9 14 1020.0 1020.2 0.0
25/01:30pm 14.8 10.8 6.6 58 4.1 SSE 17 26 9 14 1020.1 1020.3 0.0
25/01:00pm 14.2 9.6 5.8 57 4.1 SSE 19 26 10 14 1020.3 1020.4 0.0
25/12:30pm 13.6 9.4 5.7 59 3.8 SSE 17 26 9 14 1020.4 1020.5 0.0
25/12:00pm 13.2 7.6 5.4 59 3.7 SSE 24 33 13 18 1020.6 1020.7 0.0
25/11:30am 13.3 8.5 5.5 59 3.7 SSE 20 32 11 17 1021.0 1021.1 0.0
25/11:00am 13.0 10.0 5.9 62 3.4 SSE 11 15 6 8 1021.2 1021.3 0.0
25/10:30am 11.9 9.7 5.5 65 3.0 SSW 6 9 3 5 1021.3 1021.4 0.0
25/10:00am 11.3 9.6 7.6 78 1.8 SE 6 9 3 5 1021.4 1021.5 0.0
25/09:30am 9.3 8.7 7.6 89 0.8 CALM 0 6 0 3 1021.2 1021.3 0.0
25/09:00am 6.3 4.3 6.3 100 0.0 SSW 6 7 3 4 1021.1 1021.2 0.0
25/08:30am 4.1 2.0 4.1 100 0.0 S 4 7 2 4 1020.9 1021.0 0.0
25/08:00am 2.0 -0.8 2.0 100 0.0 SSE 6 9 3 5 1020.8 1020.9 0.0
25/07:30am 0.3 -3.0 0.3 100 0.0 SSW 7 9 4 5 1020.6 1020.7 0.0
25/07:00am 0.1 -3.2 0.1 100 0.0 SSW 7 9 4 5 1020.1 1020.3 0.0
25/06:30am -0.2 -3.4 -0.2 100 0.0 S 6 9 3 5 1019.7 1019.9 0.0
25/06:00am 0.1 -3.0 0.1 100 0.0 S 6 9 3 5 1019.5 1019.7 0.0
25/05:30am 0.0 -3.1 0.0 100 0.0 SSE 6 7 3 4 1019.2 1019.4 0.0
25/05:00am -0.2 -3.4 -0.2 100 0.0 SSW 6 7 3 4 1019.0 1019.1 0.0
25/04:30am 0.0 -3.3 0.0 100 0.0 SSW 7 9 4 5 1019.0 1019.1 0.0
25/04:00am 0.5 -2.2 0.5 100 0.0 SW 4 6 2 3 1019.0 1019.1 0.0
25/03:30am 0.4 -2.7 0.4 100 0.0 SW 6 7 3 4 1018.6 1018.7 0.0
25/03:00am 0.6 -2.6 0.6 100 0.0 S 7 9 4 5 1018.6 1018.7 0.0
25/02:30am 0.6 -1.7 0.6 100 0.0 S 2 7 1 4 1018.7 1018.8 0.0
25/02:00am 1.0 -2.0 1.0 100 0.0 SSE 6 6 3 3 1018.7 1018.8 0.0
25/01:30am 1.0 -2.2 1.0 100 0.0 S 7 9 4 5 1018.7 1018.8 0.0
25/01:00am 1.1 -2.0 1.1 100 0.0 S 7 9 4 5 1018.7 1018.8 0.0
25/12:30am 1.8 -1.0 1.8 100 0.0 SW 6 9 3 5 1018.6 1018.7 0.0
25/12:00am 2.2 -0.8 2.2 100 0.0 S 7 9 4 5 1018.7 1018.8 0.0
 
Date/Time
EST
Temp
°C
App
Temp
°C
Dew
Point
°C
Rel
Hum
%
Delta-T
°C
Wind Press
QNH
hPa
Press
MSL
hPa
Rain since
9am
mm
Dir  Spd
km/h
Gust
km/h
Spd
kts
Gust
kts
24/11:30pm 2.5 -0.4 2.5 100 0.0 SSE 7 7 4 4 1018.5 1018.6 0.0
24/11:00pm 2.6 -0.1 2.6 100 0.0 SSW 6 7 3 4 1018.4 1018.5 0.0
24/10:30pm 2.8 0.1 2.8 100 0.0 SSW 6 9 3 5 1018.5 1018.6 0.0
24/10:00pm 3.7 1.9 3.7 100 0.0 S 2 7 1 4 1018.4 1018.5 0.0
24/09:30pm 4.2 2.1 4.1 99 0.0 SW 4 6 2 3 1018.4 1018.5 0.0
24/09:00pm 4.9 3.7 4.8 99 0.0 CALM 0 0 0 0 1018.3 1018.4 0.0
24/08:30pm 5.6 3.4 5.5 99 0.0 SW 6 7 3 4 1018.2 1018.3 0.0
24/08:00pm 6.2 4.2 6.1 99 0.0 SSE 6 6 3 3 1017.9 1018.0 0.0
24/07:30pm 7.0 4.9 6.7 98 0.1 S 7 9 4 5 1017.6 1017.7 0.0
24/07:00pm 7.4 6.7 6.8 96 0.3 CALM 0 0 0 0 1017.3 1017.5 0.0
24/06:30pm 7.4 5.3 5.9 90 0.7 SW 6 7 3 4 1017.0 1017.2 0.0
24/06:00pm 8.6 6.3 5.7 82 1.3 SW 7 9 4 5 1016.7 1016.8 0.0
24/05:30pm 10.0 7.0 6.0 76 1.9 WSW 11 15 6 8 1016.5 1016.6 0.0
24/05:00pm 12.3 10.9 5.5 63 3.2 SSW 2 7 1 4 1016.2 1016.3 0.0
24/04:30pm 13.7 11.0 5.8 59 3.8 S 9 13 5 7 1015.9 1016.0 0.0
24/04:00pm 14.9 11.2 4.3 49 5.0 S 13 17 7 9 1015.6 1015.7 0.0
24/03:30pm 15.4 11.9 5.6 52 4.8 S 13 15 7 8 1015.2 1015.3 0.0
24/03:00pm 15.4 12.3 5.6 52 4.8 SSE 11 17 6 9 1015.0 1015.1 0.0
24/02:30pm 15.6 12.3 6.3 54 4.6 S 13 22 7 12 1014.9 1015.0 0.0
24/02:00pm 15.4 12.1 6.2 54 4.5 SSE 13 19 7 10 1014.9 1015.0 0.0
24/01:30pm 15.5 12.5 6.0 53 4.7 SE 11 15 6 8 1015.0 1015.1 0.0
24/01:00pm 15.0 11.8 5.0 51 4.8 SSE 11 19 6 10 1015.2 1015.3 0.0
24/12:30pm 15.1 11.9 5.0 51 4.9 SE 11 17 6 9 1015.4 1015.5 0.0
24/12:00pm 15.1 12.3 5.3 52 4.7 SSW 9 15 5 8 1015.7 1015.8 0.0
24/11:30am 15.1 13.0 6.7 57 4.2 NW 7 11 4 6 1016.0 1016.1 0.0
24/11:00am 14.0 12.2 7.3 64 3.3 N 6 7 3 4 1016.1 1016.2 0.0
24/10:30am 13.1 12.2 7.8 70 2.7 ENE 2 7 1 4 1016.1 1016.2 0.0
24/10:00am 11.3 10.2 7.0 75 2.1 ESE 2 7 1 4 1016.1 1016.2 0.0
24/09:30am 8.7 8.0 8.4 98 0.1 SE 2 7 1 4 1016.0 1016.1 0.0
24/09:00am 6.5 5.7 6.5 100 0.0 CALM 0 0 0 0 1015.9 1016.0 0.2
24/08:59am 6.4 5.6 6.4 100 0.0 CALM 0 0 0 0 1015.9 1016.0 0.2
24/08:30am 4.5 2.9 4.5 100 0.0 S 2 6 1 3 1015.7 1015.8 0.2
24/08:00am 3.4 2.0 3.4 100 0.0 CALM 0 0 0 0 1015.5 1015.6 0.2
24/07:30am 2.6 0.7 2.6 100 0.0 WSW 2 7 1 4 1015.2 1015.3 0.2
24/07:00am 2.7 0.0 2.7 100 0.0 SSW 6 7 3 4 1014.7 1014.7 0.2
24/06:30am 2.6 -0.1 2.6 100 0.0 SSW 6 7 3 4 1014.2 1014.3 0.2
24/06:15am 2.5 0.2 2.5 100 0.0 SW 4 7 2 4 1014.0 1014.1 0.2
24/06:00am 2.6 1.0 2.6 100 0.0 CALM 0 0 0 0 1013.9 1014.0 0.2
24/05:37am 3.2 1.7 3.2 100 0.0 CALM 0 0 0 0 1013.7 1013.8 0.2
24/05:30am 3.6 2.2 3.6 100 0.0 CALM 0 0 0 0 1013.7 1013.8 0.2
24/05:00am 4.0 1.5 4.0 100 0.0 SW 6 7 3 4 1013.3 1013.4 0.2
24/04:30am 4.7 2.8 4.7 100 0.0 SW 4 7 2 4 1013.1 1013.2 0.2
24/04:00am 5.6 4.6 5.6 100 0.0 CALM 0 0 0 0 1013.0 1013.1 0.2
24/03:30am 6.5 5.7 6.5 100 0.0 CALM 0 0 0 0 1012.9 1013.0 0.2
24/03:00am 7.2 6.2 7.2 100 0.0 N 2 6 1 3 1012.9 1013.0 0.2
24/02:30am 7.6 5.9 7.6 100 0.0 N 6 7 3 4 1013.1 1013.2 0.2
24/02:00am 7.6 7.0 7.6 100 0.0 CALM 0 0 0 0 1013.2 1013.3 0.2
24/01:30am 7.9 7.4 7.9 100 0.0 CALM 0 0 0 0 1013.3 1013.4 0.2
24/01:00am 8.0 7.5 8.0 100 0.0 CALM 0 0 0 0 1013.3 1013.4 0.2
24/12:30am 8.0 7.5 8.0 100 0.0 CALM 0 0 0 0 1013.3 1013.4 0.2
24/12:00am 8.0 7.5 7.9 99 0.0 CALM 0 0 0 0 1013.2 1013.3 0.2
 
Date/Time
EST
Temp
°C
App
Temp
°C
Dew
Point
°C
Rel
Hum
%
Delta-T
°C
Wind Press
QNH
hPa
Press
MSL
hPa
Rain since
9am
mm
Dir  Spd
km/h
Gust
km/h
Spd
kts
Gust
kts
23/11:30pm 7.9 7.0 7.8 99 0.0 N 2 7 1 4 1013.2 1013.3 0.2
23/11:00pm 8.0 7.5 7.9 99 0.0 CALM 0 0 0 0 1013.3 1013.4 0.2
23/10:30pm 8.0 6.4 7.9 99 0.0 N 6 7 3 4 1013.3 1013.4 0.2
23/10:00pm 7.8 6.5 7.7 99 0.0 ENE 4 9 2 5 1013.2 1013.3 0.2
23/09:30pm 7.6 6.6 7.5 99 0.0 ESE 2 6 1 3 1013.0 1013.1 0.2
23/09:00pm 7.5 5.2 7.4 99 0.0 WSW 9 13 5 7 1013.0 1013.1 0.2
23/08:30pm 7.2 3.9 6.6 96 0.3 WSW 13 17 7 9 1012.9 1013.0 0.2
23/08:00pm 8.0 4.9 7.1 94 0.4 SW 13 17 7 9 1012.9 1013.0 0.2
23/07:30pm 8.5 5.4 7.1 91 0.7 SW 13 17 7 9 1013.0 1013.1 0.2
23/07:00pm 9.1 6.0 7.2 88 0.9 SW 13 20 7 11 1012.7 1012.8 0.2
23/06:30pm 9.8 6.4 7.6 86 1.1 SW 15 20 8 11 1012.5 1012.5 0.2
23/06:00pm 10.3 7.7 7.7 84 1.3 WSW 11 17 6 9 1012.2 1012.2 0.2
23/05:30pm 10.7 8.0 7.4 80 1.6 WSW 11 15 6 8 1011.7 1011.8 0.2
23/05:00pm 11.1 9.1 7.2 77 1.9 WSW 7 13 4 7 1011.7 1011.8 0.2
23/04:30pm 11.9 7.9 6.8 71 2.5 SW 17 20 9 11 1011.6 1011.7 0.2
23/04:00pm 12.2 7.8 6.7 69 2.7 SW 19 26 10 14 1011.6 1011.7 0.2
23/03:30pm 12.8 8.8 6.8 67 2.9 SW 17 24 9 13 1011.4 1011.5 0.2
23/03:00pm 13.0 9.9 7.2 68 2.9 WSW 13 19 7 10 1011.4 1011.5 0.2
23/02:30pm 13.0 10.6 7.2 68 2.9 W 9 19 5 10 1011.5 1011.6 0.2
23/02:00pm 13.0 10.0 7.9 71 2.6 WSW 13 24 7 13 1011.4 1011.5 0.2
23/01:30pm 13.5 11.4 8.4 71 2.6 WSW 9 15 5 8 1011.5 1011.6 0.2
23/01:00pm 12.2 9.1 7.1 71 2.5 WSW 13 19 7 10 1012.1 1012.1 0.0
23/12:30pm 12.1 9.1 7.8 75 2.1 WSW 13 20 7 11 1012.3 1012.3 0.0
23/12:00pm 10.9 7.7 7.0 77 1.9 WSW 13 20 7 11 1012.8 1012.9 0.0
23/11:50am 10.9 7.4 7.2 78 1.8 WSW 15 20 8 11 1012.9 1013.0 0.0
23/11:30am 10.6 7.5 7.3 80 1.6 WSW 13 19 7 10 1013.0 1013.1 0.0
23/11:12am 10.1 7.0 7.2 82 1.4 SW 13 17 7 9 1013.2 1013.3 0.0
23/11:00am 9.6 6.9 7.4 86 1.1 SW 11 15 6 8 1013.4 1013.5 0.0
23/10:30am 9.2 6.1 7.2 87 1.0 SW 13 19 7 10 1013.6 1013.7 0.0
23/10:00am 9.6 7.2 7.2 85 1.2 WSW 9 15 5 8 1013.4 1013.5 0.0

Other formats

Comma delimited format used in spreadsheet applications
http://www.bom.gov.au/fwo/IDN60801/IDN60801.94712.axf

JavaScript Object Notation format (JSON) in row-major order
http://www.bom.gov.au/fwo/IDN60801/IDN60801.94712.json

Data quality

Most of these data are generated automatically and are frequently updated. Quality checks on data are not normally performed. It is possible for incorrect values to appear. Refer to information at About Latest Weather Observations and please check the disclaimer before using these data.